createdAt,value
2022-09-17T00:00:49.661Z,75534.41
2022-09-17T00:03:16.689Z,75524.78
2022-09-17T00:05:44.213Z,75538.25
2022-09-17T00:08:14.677Z,75542.09
2022-09-17T00:10:44.822Z,75542.09
2022-09-17T00:13:11.909Z,75534.41
2022-09-17T00:15:43.935Z,75538.25
2022-09-17T00:18:11.831Z,75549.81
2022-09-17T00:20:40.364Z,75549.81
2022-09-17T00:23:08.573Z,75557.53
2022-09-17T00:25:39.004Z,75561.38
2022-09-17T00:28:05.751Z,75561.38
2022-09-17T00:30:32.448Z,75572.94
2022-09-17T00:32:59.422Z,75576.78
2022-09-17T00:35:26.815Z,75588.34
2022-09-17T00:37:53.869Z,75588.34
2022-09-17T00:40:21.998Z,75588.34
2022-09-17T00:42:48.799Z,75584.50
2022-09-17T00:45:15.619Z,75590.28
2022-09-17T00:47:47.323Z,75586.41
2022-09-17T00:50:17.529Z,75576.78
2022-09-17T00:52:48.007Z,75576.78
2022-09-17T00:55:14.806Z,75580.63
2022-09-17T00:57:42.421Z,75582.56
2022-09-17T01:00:09.751Z,75588.34
2022-09-17T01:02:36.699Z,75580.63
2022-09-17T01:05:03.726Z,75596.03
2022-09-17T01:07:45.365Z,75601.81
2022-09-17T01:10:31.494Z,75599.91
2022-09-17T01:13:09.960Z,75607.59
2022-09-17T01:16:16.515Z,75607.59
2022-09-17T01:19:14.203Z,75607.59
2022-09-17T01:21:49.245Z,75607.59
2022-09-17T01:24:28.927Z,75615.31
2022-09-17T01:27:13.096Z,75609.53
2022-09-17T01:29:57.931Z,75615.31
2022-09-17T01:32:46.498Z,75617.25
2022-09-17T01:35:32.857Z,75609.53
2022-09-17T01:38:11.755Z,75603.75
2022-09-17T01:40:52.907Z,75596.03
2022-09-17T01:43:38.162Z,75592.19
2022-09-17T01:46:19.733Z,75596.03
2022-09-17T01:48:49.383Z,75592.19
2022-09-17T01:51:23.099Z,75592.19
2022-09-17T01:53:51.463Z,75596.03
2022-09-17T01:56:26.724Z,75594.13
2022-09-17T01:59:03.252Z,75603.75
2022-09-17T02:01:33.595Z,75607.59
2022-09-17T02:04:08.900Z,75599.91
2022-09-17T02:06:40.637Z,75592.19
2022-09-17T02:09:15.574Z,75599.91
2022-09-17T02:11:45.841Z,75603.75
2022-09-17T02:14:21.740Z,75613.38
2022-09-17T02:16:53.953Z,75613.38
2022-09-17T02:19:27.322Z,75619.16
2022-09-17T02:22:17.093Z,75619.16
2022-09-17T02:24:52.660Z,75630.72
2022-09-17T02:27:22.515Z,75648.06
2022-09-17T02:29:49.796Z,75648.06
2022-09-17T02:32:16.951Z,75659.63
2022-09-17T02:34:43.611Z,75657.69
2022-09-17T02:37:11.163Z,75657.69
2022-09-17T02:39:38.575Z,75657.69
2022-09-17T02:42:31.878Z,75659.63
2022-09-17T02:45:24.081Z,75661.56
2022-09-17T02:48:08.925Z,75661.56
2022-09-17T02:50:38.472Z,75657.69
2022-09-17T02:53:07.838Z,75661.56
2022-09-17T02:55:46.163Z,75657.69
2022-09-17T02:58:12.715Z,75653.84
2022-09-17T03:00:40.477Z,75650.00
2022-09-17T03:03:19.447Z,75646.13
2022-09-17T03:05:46.633Z,75650.00
2022-09-17T03:08:14.769Z,75657.69
2022-09-17T03:10:41.621Z,75661.56
2022-09-17T03:13:08.425Z,75655.78
2022-09-17T03:15:35.202Z,75661.56
2022-09-17T03:18:02.070Z,75667.31
2022-09-17T03:20:28.762Z,75673.09
2022-09-17T03:22:55.475Z,75673.09
2022-09-17T03:25:22.136Z,75676.97
2022-09-17T03:27:48.895Z,75680.81
2022-09-17T03:30:15.640Z,75673.09
2022-09-17T03:32:42.262Z,75669.25
2022-09-17T03:35:08.988Z,75661.56
2022-09-17T03:37:35.627Z,75655.78
2022-09-17T03:40:02.803Z,75657.69
2022-09-17T03:42:29.429Z,75655.78
2022-09-17T03:44:57.031Z,75644.22
2022-09-17T03:47:23.734Z,75634.56
2022-09-17T03:49:52.239Z,75634.56
2022-09-17T03:52:18.969Z,75638.44
2022-09-17T03:54:45.571Z,75638.44
2022-09-17T03:57:12.214Z,75628.78
2022-09-17T03:59:38.924Z,75626.88
2022-09-17T04:02:06.144Z,75615.31
2022-09-17T04:04:32.889Z,75603.75
2022-09-17T04:06:59.586Z,75597.97
2022-09-17T04:09:26.853Z,75582.56
2022-09-17T04:11:53.632Z,75576.78
2022-09-17T04:14:20.209Z,75565.22
2022-09-17T04:16:46.861Z,75551.75
2022-09-17T04:19:13.566Z,75545.97
2022-09-17T04:21:40.194Z,75526.69
2022-09-17T04:24:07.805Z,75538.25
2022-09-17T04:26:34.479Z,75555.59
2022-09-17T04:29:01.200Z,75561.38
2022-09-17T04:31:27.867Z,75572.94
2022-09-17T04:33:54.673Z,75576.78
2022-09-17T04:36:21.350Z,75563.31
2022-09-17T04:38:48.942Z,75572.94
2022-09-17T04:41:16.087Z,75588.34
2022-09-17T04:43:42.964Z,75599.91
2022-09-17T04:46:09.676Z,75607.59
2022-09-17T04:48:36.474Z,75609.53
2022-09-17T04:51:03.409Z,75615.31
2022-09-17T04:53:30.086Z,75611.47
2022-09-17T04:55:56.725Z,75609.53
2022-09-17T04:58:23.446Z,75611.47
2022-09-17T05:00:50.159Z,75615.31
2022-09-17T05:03:16.842Z,75615.31
2022-09-17T05:05:43.671Z,75592.19
2022-09-17T05:08:10.461Z,75596.03
2022-09-17T05:10:37.103Z,75592.19
2022-09-17T05:13:03.785Z,75592.19
2022-09-17T05:15:30.498Z,75580.63
2022-09-17T05:17:57.390Z,75561.38
2022-09-17T05:20:24.087Z,75557.53
2022-09-17T05:22:52.147Z,75549.81
2022-09-17T05:25:21.358Z,75526.69
2022-09-17T05:27:48.030Z,75509.34
2022-09-17T05:30:14.797Z,75499.72
2022-09-17T05:32:41.462Z,75499.72
2022-09-17T05:35:09.000Z,75503.59
2022-09-17T05:37:35.945Z,75492.03
2022-09-17T05:40:05.984Z,75499.72
2022-09-17T05:42:32.898Z,75492.03
2022-09-17T05:44:59.609Z,75486.25
2022-09-17T05:47:26.334Z,75499.72
2022-09-17T05:49:53.395Z,75524.78
2022-09-17T05:52:20.068Z,75522.84
2022-09-17T05:54:46.893Z,75520.91
2022-09-17T05:57:13.532Z,75519.00
2022-09-17T05:59:40.158Z,75511.28
2022-09-17T06:02:06.900Z,75511.28
2022-09-17T06:04:35.063Z,75509.34
2022-09-17T06:07:07.480Z,75499.72
2022-09-17T06:09:41.226Z,75499.72
2022-09-17T06:12:08.642Z,75488.16
2022-09-17T06:14:35.569Z,75476.59
2022-09-17T06:17:02.511Z,75468.91
2022-09-17T06:19:29.556Z,75459.28
2022-09-17T06:21:56.507Z,75438.09
2022-09-17T06:24:24.281Z,75441.94
2022-09-17T06:26:52.283Z,75422.66
2022-09-17T06:29:20.294Z,75411.13
2022-09-17T06:31:54.617Z,75403.41
2022-09-17T06:34:22.875Z,75403.41
2022-09-17T06:36:50.429Z,75395.69
2022-09-17T06:39:17.653Z,75399.56
2022-09-17T06:41:44.728Z,75399.56
2022-09-17T06:44:11.933Z,75407.25
2022-09-17T06:46:39.113Z,75399.56
2022-09-17T06:49:06.109Z,75405.34
2022-09-17T06:51:33.188Z,75395.69
2022-09-17T06:54:01.570Z,75384.13
2022-09-17T06:56:28.210Z,75382.22
2022-09-17T06:58:54.898Z,75384.13
2022-09-17T07:01:21.671Z,75361.03
2022-09-17T07:03:50.703Z,75376.44
2022-09-17T07:06:18.349Z,75359.09
2022-09-17T07:08:47.489Z,75361.03
2022-09-17T07:11:16.066Z,75357.16
2022-09-17T07:13:42.745Z,75355.25
2022-09-17T07:16:10.277Z,75376.44
2022-09-17T07:18:37.136Z,75374.50
2022-09-17T07:21:05.897Z,75349.47
2022-09-17T07:23:35.311Z,75337.91
2022-09-17T07:26:05.158Z,75328.28
2022-09-17T07:28:32.076Z,75334.06
2022-09-17T07:30:58.964Z,75345.63
2022-09-17T07:33:27.821Z,75362.94
2022-09-17T07:36:01.498Z,75384.13
2022-09-17T07:38:30.034Z,75399.56
2022-09-17T07:41:02.501Z,75399.56
2022-09-17T07:43:32.137Z,75397.63
2022-09-17T07:46:00.990Z,75416.91
2022-09-17T07:48:28.971Z,75401.47
2022-09-17T07:50:56.718Z,75393.78
2022-09-17T07:53:23.587Z,75393.78
2022-09-17T07:55:55.566Z,75397.63
2022-09-17T07:58:23.704Z,75407.25
2022-09-17T08:00:50.960Z,75407.25
2022-09-17T08:03:17.916Z,75395.69
2022-09-17T08:05:44.729Z,75405.34
2022-09-17T08:08:11.530Z,75411.13
2022-09-17T08:10:38.169Z,75420.75
2022-09-17T08:13:04.908Z,75422.66
2022-09-17T08:15:31.558Z,75426.53
2022-09-17T08:17:58.254Z,75414.97
2022-09-17T08:20:26.245Z,75438.09
2022-09-17T08:23:00.756Z,75428.44
2022-09-17T08:25:27.575Z,75453.50
2022-09-17T08:27:57.951Z,75449.63
2022-09-17T08:30:24.970Z,75472.75
2022-09-17T08:32:51.629Z,75466.97
2022-09-17T08:35:18.315Z,75466.97
2022-09-17T08:37:46.123Z,75470.81
2022-09-17T08:40:22.464Z,75468.91
2022-09-17T08:43:00.844Z,75457.34
2022-09-17T08:45:27.721Z,75466.97
2022-09-17T08:48:05.219Z,75453.50
2022-09-17T08:50:34.374Z,75461.19
2022-09-17T08:53:19.229Z,75461.19
2022-09-17T08:55:54.665Z,75449.63
2022-09-17T08:58:29.931Z,75451.56
2022-09-17T09:01:23.201Z,75468.91
2022-09-17T09:04:05.170Z,75445.78
2022-09-17T09:06:38.058Z,75432.31
2022-09-17T09:09:20.917Z,75453.50
2022-09-17T09:11:50.524Z,75445.78
2022-09-17T09:14:29.830Z,75434.22
2022-09-17T09:16:58.810Z,75436.16
2022-09-17T09:19:32.183Z,75438.09
2022-09-17T09:22:27.268Z,75430.38
2022-09-17T09:25:09.759Z,75441.94
2022-09-17T09:27:44.114Z,75453.50
2022-09-17T09:30:13.581Z,75443.88
2022-09-17T09:32:45.903Z,75461.19
2022-09-17T09:35:17.527Z,75441.94
2022-09-17T09:38:11.075Z,75432.31
2022-09-17T09:40:44.792Z,75434.22
2022-09-17T09:43:21.540Z,75438.09
2022-09-17T09:46:07.138Z,75409.19
2022-09-17T09:49:11.922Z,75411.13
2022-09-17T09:51:52.897Z,75403.41
2022-09-17T09:54:46.854Z,75411.13
2022-09-17T09:57:17.824Z,75403.41
2022-09-17T09:59:44.958Z,75403.41
2022-09-17T10:02:12.157Z,75380.28
2022-09-17T10:04:39.261Z,75359.09
2022-09-17T10:07:07.157Z,75361.03
2022-09-17T10:09:37.086Z,75357.16
2022-09-17T10:12:05.853Z,75357.16
2022-09-17T10:14:35.640Z,75347.53
2022-09-17T10:17:13.741Z,75345.63
2022-09-17T10:19:41.392Z,75334.06
2022-09-17T10:22:33.201Z,75332.13
2022-09-17T10:25:05.748Z,75316.72
2022-09-17T10:27:34.353Z,75322.50
2022-09-17T10:30:17.247Z,75339.84
2022-09-17T10:32:44.381Z,75330.19
2022-09-17T10:35:17.023Z,75305.16
2022-09-17T10:37:48.262Z,75307.09
2022-09-17T10:40:18.681Z,75282.03
2022-09-17T10:42:50.904Z,75287.81
2022-09-17T10:45:25.657Z,75266.63
2022-09-17T10:47:52.946Z,75253.16
2022-09-17T10:50:31.357Z,75245.44
2022-09-17T10:53:03.244Z,75218.47
2022-09-17T10:55:48.582Z,75245.44
2022-09-17T10:58:18.510Z,75206.91
2022-09-17T11:01:08.122Z,75153.00
2022-09-17T11:04:03.447Z,75179.94
2022-09-17T11:06:30.247Z,75156.84
2022-09-17T11:09:12.092Z,75151.06
2022-09-17T11:11:51.730Z,75126.03
2022-09-17T11:14:36.061Z,75118.31
2022-09-17T11:17:40.591Z,75114.47
2022-09-17T11:20:37.983Z,75118.31
2022-09-17T11:23:22.616Z,75102.91
2022-09-17T11:26:00.320Z,75064.38
2022-09-17T11:28:30.098Z,75060.53
2022-09-17T11:31:05.561Z,75041.28
2022-09-17T11:33:44.060Z,75068.25
2022-09-17T11:36:16.608Z,75083.66
2022-09-17T11:38:48.693Z,75087.50
2022-09-17T11:41:17.789Z,75037.41
2022-09-17T11:44:05.544Z,75037.41
2022-09-17T11:46:40.909Z,74993.13
2022-09-17T11:49:13.715Z,75060.53
2022-09-17T11:51:50.383Z,75083.66
2022-09-17T11:54:25.932Z,75137.56
2022-09-17T11:57:09.717Z,75176.09
2022-09-17T11:59:56.388Z,75189.59
2022-09-17T12:02:50.754Z,75168.41
2022-09-17T12:05:43.201Z,75206.91
2022-09-17T12:08:47.760Z,75212.69
2022-09-17T12:11:22.990Z,75191.50
2022-09-17T12:13:53.003Z,75187.66
2022-09-17T12:16:38.971Z,75195.38
2022-09-17T12:19:19.810Z,75179.94
2022-09-17T12:22:27.712Z,75141.44
2022-09-17T12:24:54.803Z,75141.44
2022-09-17T12:27:30.339Z,75133.72
2022-09-17T12:30:13.650Z,75124.09
2022-09-17T12:33:19.875Z,75126.03
2022-09-17T12:36:25.964Z,75166.47
2022-09-17T12:39:15.399Z,75168.41
2022-09-17T12:41:56.985Z,75170.31
2022-09-17T12:44:23.636Z,75201.16
2022-09-17T12:46:56.397Z,75233.88
2022-09-17T12:49:38.473Z,75228.13
2022-09-17T12:52:21.826Z,75224.25
2022-09-17T12:55:37.792Z,75210.78
2022-09-17T12:58:10.303Z,75220.41
2022-09-17T13:00:46.411Z,75233.88
2022-09-17T13:03:20.023Z,75247.38
2022-09-17T13:06:09.266Z,75255.09
2022-09-17T13:09:05.237Z,75264.72
2022-09-17T13:11:57.044Z,75253.16
2022-09-17T13:14:29.755Z,75249.31
2022-09-17T13:17:25.677Z,75241.59
2022-09-17T13:20:26.057Z,75239.66
2022-09-17T13:22:55.663Z,75228.13
2022-09-17T13:25:23.715Z,75249.31
2022-09-17T13:28:04.478Z,75276.28
2022-09-17T13:31:01.174Z,75260.84
2022-09-17T13:33:54.330Z,75291.69
2022-09-17T13:36:33.707Z,75276.28
2022-09-17T13:39:04.875Z,75291.69
2022-09-17T13:41:36.730Z,75287.81
2022-09-17T13:44:06.278Z,75305.16
2022-09-17T13:46:34.676Z,75305.16
2022-09-17T13:49:06.681Z,75295.53
2022-09-17T13:51:33.268Z,75307.09
2022-09-17T13:54:06.785Z,75318.66
2022-09-17T13:56:38.011Z,75305.16
2022-09-17T13:59:12.458Z,75326.34
2022-09-17T14:02:01.583Z,75337.91
2022-09-17T14:04:40.598Z,75351.41
2022-09-17T14:07:26.459Z,75364.88
2022-09-17T14:09:57.314Z,75372.59
2022-09-17T14:12:44.688Z,75374.50
2022-09-17T14:15:36.087Z,75364.88
2022-09-17T14:18:28.813Z,75372.59
2022-09-17T14:21:06.657Z,75370.66
2022-09-17T14:23:35.374Z,75372.59
2022-09-17T14:26:10.049Z,75366.81
2022-09-17T14:28:49.578Z,75372.59
2022-09-17T14:31:22.088Z,75382.22
2022-09-17T14:33:49.776Z,75389.91
2022-09-17T14:36:20.473Z,75399.56
2022-09-17T14:38:52.169Z,75399.56
2022-09-17T14:41:26.082Z,75403.41
2022-09-17T14:44:04.494Z,75399.56
2022-09-17T14:46:37.982Z,75393.78
2022-09-17T14:49:25.947Z,75395.69
2022-09-17T14:51:58.630Z,75388.00
2022-09-17T14:54:29.487Z,75370.66
2022-09-17T14:57:09.810Z,75368.72
2022-09-17T14:59:53.623Z,75357.16
2022-09-17T15:02:45.918Z,75359.09
2022-09-17T15:05:21.022Z,75361.03
2022-09-17T15:07:48.672Z,75349.47
2022-09-17T15:10:21.063Z,75345.63
2022-09-17T15:12:49.881Z,75349.47
2022-09-17T15:15:26.322Z,75334.06
2022-09-17T15:17:54.525Z,75316.72
2022-09-17T15:20:24.284Z,75330.19
2022-09-17T15:23:16.176Z,75332.13
2022-09-17T15:25:44.272Z,75330.19
2022-09-17T15:28:32.830Z,75320.56
2022-09-17T15:30:59.788Z,75320.56
2022-09-17T15:33:28.989Z,75314.78
2022-09-17T15:36:27.891Z,75309.00
2022-09-17T15:38:54.919Z,75318.66
2022-09-17T15:41:30.194Z,75303.25
2022-09-17T15:44:31.078Z,75305.16
2022-09-17T15:47:39.207Z,75257.00
2022-09-17T15:50:25.946Z,75295.53
2022-09-17T15:53:12.874Z,75303.25
2022-09-17T15:55:58.538Z,75293.59
2022-09-17T15:58:25.092Z,75307.09
2022-09-17T16:01:15.471Z,75295.53
2022-09-17T16:03:43.399Z,75295.53
2022-09-17T16:06:19.361Z,75303.25
2022-09-17T16:08:51.427Z,75309.00
2022-09-17T16:11:22.602Z,75305.16
2022-09-17T16:13:50.790Z,75245.44
2022-09-17T16:16:22.099Z,75272.41
2022-09-17T16:18:51.535Z,75310.94
2022-09-17T16:21:19.975Z,75303.25
2022-09-17T16:23:47.191Z,75293.59
2022-09-17T16:26:41.320Z,75326.34
2022-09-17T16:29:14.660Z,75299.38
2022-09-17T16:31:41.492Z,75307.09
2022-09-17T16:34:08.203Z,75291.69
2022-09-17T16:36:34.862Z,75310.94
2022-09-17T16:39:01.498Z,75337.91
2022-09-17T16:41:28.186Z,75335.97
2022-09-17T16:43:54.875Z,75330.19
2022-09-17T16:46:21.568Z,75318.66
2022-09-17T16:48:51.430Z,75341.75
2022-09-17T16:51:18.520Z,75310.94
2022-09-17T16:53:45.746Z,75282.03
2022-09-17T16:56:15.276Z,75334.06
2022-09-17T16:58:43.072Z,75335.97
2022-09-17T17:01:12.452Z,75364.88
2022-09-17T17:03:39.756Z,75337.91
2022-09-17T17:06:07.263Z,75309.00
2022-09-17T17:08:34.292Z,75353.31
2022-09-17T17:11:01.299Z,75349.47
2022-09-17T17:13:28.235Z,75364.88
2022-09-17T17:15:55.306Z,75357.16
2022-09-17T17:18:22.617Z,75355.25
2022-09-17T17:20:49.350Z,75376.44
2022-09-17T17:23:16.917Z,75380.28
2022-09-17T17:25:43.656Z,75382.22
2022-09-17T17:28:10.964Z,75370.66
2022-09-17T17:30:38.453Z,75364.88
2022-09-17T17:33:05.443Z,75395.69
2022-09-17T17:35:32.511Z,75407.25
2022-09-17T17:37:59.307Z,75422.66
2022-09-17T17:40:26.777Z,75426.53
2022-09-17T17:42:53.700Z,75438.09
2022-09-17T17:45:20.578Z,75447.72
2022-09-17T17:47:47.284Z,75461.19
2022-09-17T17:50:15.850Z,75461.19
2022-09-17T17:52:47.739Z,75461.19
2022-09-17T17:55:15.386Z,75468.91
2022-09-17T17:57:42.014Z,75484.31
2022-09-17T18:00:11.986Z,75488.16
2022-09-17T18:02:39.285Z,75497.81
2022-09-17T18:05:06.428Z,75509.34
2022-09-17T18:07:33.695Z,75526.69
2022-09-17T18:10:00.392Z,75549.81
2022-09-17T18:12:27.288Z,75557.53
2022-09-17T18:14:54.049Z,75565.22
2022-09-17T18:17:20.695Z,75574.84
2022-09-17T18:19:47.379Z,75576.78
2022-09-17T18:22:14.230Z,75592.19
2022-09-17T18:24:40.914Z,75603.75
2022-09-17T18:27:07.640Z,75619.16
2022-09-17T18:29:34.365Z,75632.66
2022-09-17T18:32:01.148Z,75646.13
2022-09-17T18:34:27.785Z,75644.22
2022-09-17T18:36:54.399Z,75646.13
2022-09-17T18:42:09.034Z,75650.00
2022-09-17T18:44:35.895Z,75657.69
2022-09-17T18:47:02.728Z,75665.41
2022-09-17T18:49:29.393Z,75669.25
2022-09-17T18:51:56.517Z,75673.09
2022-09-17T18:54:23.608Z,75671.19
2022-09-17T18:56:50.752Z,75669.25
2022-09-17T18:59:17.719Z,75673.09
2022-09-17T19:01:44.841Z,75680.81
2022-09-17T19:04:11.992Z,75684.66
2022-09-17T19:06:45.619Z,75684.66
2022-09-17T19:09:12.621Z,75684.66
2022-09-17T19:11:39.738Z,75688.53
2022-09-17T19:14:09.746Z,75688.53
2022-09-17T19:16:37.245Z,75700.09
2022-09-17T19:19:04.380Z,75698.16
2022-09-17T19:21:31.441Z,75692.38
2022-09-17T19:23:58.589Z,75692.38
2022-09-17T19:26:27.300Z,75700.09
2022-09-17T19:28:57.815Z,75700.09
2022-09-17T19:31:25.196Z,75703.94
2022-09-17T19:33:52.460Z,75700.09
2022-09-17T19:36:20.596Z,75703.94
2022-09-17T19:38:48.181Z,75702.00
2022-09-17T19:41:17.370Z,75707.78
2022-09-17T19:43:45.268Z,75711.63
2022-09-17T19:46:17.930Z,75713.56
2022-09-17T19:48:50.273Z,75717.41
2022-09-17T19:51:18.221Z,75709.72
2022-09-17T19:53:45.637Z,75707.78
2022-09-17T19:56:23.590Z,75702.00
2022-09-17T19:58:50.782Z,75703.94
2022-09-17T20:01:17.997Z,75705.84
2022-09-17T20:03:45.699Z,75707.78
2022-09-17T20:06:15.406Z,75707.78
2022-09-17T20:08:50.381Z,75700.09
2022-09-17T20:11:18.509Z,75709.72
2022-09-17T20:13:45.199Z,75700.09
2022-09-17T20:16:20.698Z,75700.09
2022-09-17T20:18:48.821Z,75702.00
2022-09-17T20:21:16.820Z,75702.00
2022-09-17T20:23:43.886Z,75694.31
2022-09-17T20:26:12.533Z,75700.09
2022-09-17T20:28:39.751Z,75703.94
2022-09-17T20:31:10.513Z,75696.22
2022-09-17T20:33:37.254Z,75707.78
2022-09-17T20:36:07.245Z,75711.63
2022-09-17T20:39:09.974Z,75715.50
2022-09-17T20:41:20.947Z,75717.41
2022-09-17T20:43:52.710Z,75725.13
2022-09-17T20:46:26.071Z,75732.84
2022-09-17T20:48:57.550Z,75730.91
2022-09-17T20:51:26.897Z,75734.75
2022-09-17T20:53:53.669Z,75742.47
2022-09-17T20:56:26.271Z,75744.38
2022-09-17T20:59:07.705Z,75748.25
2022-09-17T21:01:36.826Z,75757.88
2022-09-17T21:04:05.857Z,75757.88
2022-09-17T21:06:35.452Z,75746.31
2022-09-17T21:09:03.171Z,75761.72
2022-09-17T21:11:33.817Z,75761.72
2022-09-17T21:14:01.005Z,75757.88
2022-09-17T21:16:28.319Z,75755.94
2022-09-17T21:18:58.004Z,75765.59
2022-09-17T21:21:25.857Z,75769.44
2022-09-17T21:23:52.780Z,75769.44
2022-09-17T21:26:24.198Z,75765.59
2022-09-17T21:28:52.360Z,75765.59
2022-09-17T21:31:31.702Z,75757.88
2022-09-17T21:34:02.290Z,75761.72
2022-09-17T21:36:31.048Z,75773.28
2022-09-17T21:38:59.927Z,75777.13
2022-09-17T21:41:27.147Z,75777.13
2022-09-17T21:43:54.493Z,75782.91
2022-09-17T21:46:26.221Z,75777.13
2022-09-17T21:48:56.510Z,75782.91
2022-09-17T21:51:30.323Z,75782.91
2022-09-17T21:53:59.538Z,75792.56
2022-09-17T21:56:27.342Z,75796.41
2022-09-17T21:58:56.416Z,75792.56
2022-09-17T22:01:27.768Z,75794.47
2022-09-17T22:03:57.196Z,75802.19
2022-09-17T22:06:29.236Z,75809.91
2022-09-17T22:08:57.510Z,75811.81
2022-09-17T22:11:36.517Z,75813.75
2022-09-17T22:14:11.055Z,75819.53
2022-09-17T22:16:46.260Z,75819.53
2022-09-17T22:19:15.659Z,75819.53
2022-09-17T22:21:46.585Z,75819.53
2022-09-17T22:24:15.201Z,75815.69
2022-09-17T22:26:44.744Z,75827.22
2022-09-17T22:29:14.756Z,75833.00
2022-09-17T22:31:42.099Z,75844.56
2022-09-17T22:34:10.952Z,75834.94
2022-09-17T22:36:37.919Z,75842.66
2022-09-17T22:39:05.712Z,75856.13
2022-09-17T22:41:36.134Z,75865.75
2022-09-17T22:44:07.604Z,75854.22
2022-09-17T22:46:36.937Z,75854.22
2022-09-17T22:49:03.677Z,75854.22
2022-09-17T22:51:31.225Z,75858.06
2022-09-17T22:53:59.156Z,75871.53
2022-09-17T22:56:27.558Z,75871.53
2022-09-17T22:58:56.036Z,75873.47
2022-09-17T23:01:25.307Z,75883.09
2022-09-17T23:03:52.744Z,75894.66
2022-09-17T23:06:25.041Z,75894.66
2022-09-17T23:08:52.386Z,75894.66
2022-09-17T23:11:19.026Z,75888.88
2022-09-17T23:13:46.330Z,75886.97
2022-09-17T23:16:13.499Z,75896.59
2022-09-17T23:18:40.259Z,75912.00
2022-09-17T23:21:18.042Z,75904.28
2022-09-17T23:23:49.592Z,75915.84
2022-09-17T23:26:22.744Z,75927.41
2022-09-17T23:28:50.331Z,75942.84
2022-09-17T23:31:18.147Z,75950.53
2022-09-17T23:33:46.171Z,75952.47
2022-09-17T23:36:15.882Z,75962.09
2022-09-17T23:38:44.861Z,75969.81
2022-09-17T23:41:18.195Z,75969.81
2022-09-17T23:43:47.639Z,75973.66
2022-09-17T23:46:15.130Z,75987.16
2022-09-17T23:48:42.462Z,75981.38
2022-09-17T23:51:10.209Z,75981.38
2022-09-17T23:53:37.199Z,75985.22
2022-09-17T23:56:09.852Z,76006.41
2022-09-17T23:58:36.559Z,76004.47
